Aviation Digital Data Service (ADDS)

Output produced by TAFs form (0554 UTC 30 September 2014)
found at http://www.aviationweather.gov/adds/tafs/
 
KIAD 300546Z 3006/0112 VRB03KT 2SM BR OVC006 
     FM301000 00000KT 1SM BR SCT090 
     FM301300 00000KT P6SM FEW050 SCT130 
     FM302000 13006KT P6SM FEW050 SCT250 
     FM010000 VRB03KT P6SM BKN090